createdAt,value
2023-05-10T00:00:13.899Z,0.00
2023-05-10T00:01:13.787Z,0.00
2023-05-10T00:02:13.806Z,0.00
2023-05-10T00:03:13.847Z,0.00
2023-05-10T00:04:13.850Z,0.00
2023-05-10T00:05:13.737Z,0.00
2023-05-10T00:06:13.717Z,0.00
2023-05-10T00:07:13.703Z,0.00
2023-05-10T00:08:13.720Z,0.00
2023-05-10T00:09:13.679Z,0.00
2023-05-10T00:10:13.827Z,0.00
2023-05-10T00:11:13.673Z,0.00
2023-05-10T00:12:13.660Z,0.00
2023-05-10T00:13:13.670Z,0.00
2023-05-10T00:14:13.637Z,0.00
2023-05-10T00:15:13.621Z,0.00
2023-05-10T00:16:13.655Z,0.00
2023-05-10T00:17:13.615Z,0.00
2023-05-10T00:18:13.589Z,0.00
2023-05-10T00:19:13.587Z,0.00
2023-05-10T00:20:13.782Z,0.00
2023-05-10T00:21:13.582Z,0.00
2023-05-10T00:22:13.564Z,0.00
2023-05-10T00:23:13.543Z,0.00
2023-05-10T00:24:13.526Z,0.00
2023-05-10T00:25:13.532Z,0.00
2023-05-10T00:26:13.532Z,0.00
2023-05-10T00:27:13.519Z,0.00
2023-05-10T00:28:13.485Z,0.00
2023-05-10T00:29:13.476Z,0.00
2023-05-10T00:30:13.629Z,0.00
2023-05-10T00:31:13.480Z,0.00
2023-05-10T00:32:13.560Z,0.00
2023-05-10T00:33:13.442Z,0.00
2023-05-10T00:34:13.432Z,0.00
2023-05-10T00:35:13.423Z,0.00
2023-05-10T00:36:13.419Z,0.00
2023-05-10T00:37:13.405Z,0.00
2023-05-10T00:38:13.383Z,0.00
2023-05-10T00:39:13.395Z,0.00
2023-05-10T00:40:13.464Z,0.00
2023-05-10T00:41:13.374Z,0.00
2023-05-10T00:42:13.347Z,0.00
2023-05-10T00:43:13.336Z,0.00
2023-05-10T00:44:13.316Z,0.00
2023-05-10T00:45:13.340Z,0.00
2023-05-10T00:46:13.326Z,0.00
2023-05-10T00:47:13.298Z,0.00
2023-05-10T00:48:13.296Z,0.00
2023-05-10T00:49:13.278Z,0.00
2023-05-10T00:50:13.332Z,0.00
2023-05-10T00:51:13.257Z,0.00
2023-05-10T00:52:13.239Z,0.00
2023-05-10T00:53:13.232Z,0.00
2023-05-10T00:54:13.241Z,0.00
2023-05-10T00:55:13.228Z,0.00
2023-05-10T00:56:13.199Z,0.00
2023-05-10T00:57:13.204Z,0.00
2023-05-10T00:58:13.190Z,0.00
2023-05-10T00:59:13.184Z,0.00
2023-05-10T01:00:13.205Z,0.00
2023-05-10T01:01:13.222Z,0.00
2023-05-10T01:02:13.160Z,0.00
2023-05-10T01:03:13.257Z,0.00
2023-05-10T01:04:13.136Z,0.00
2023-05-10T01:05:13.194Z,0.00
2023-05-10T01:06:13.125Z,0.00
2023-05-10T01:07:13.087Z,0.00
2023-05-10T01:08:13.092Z,0.00
2023-05-10T01:09:13.102Z,0.00
2023-05-10T01:10:13.088Z,0.00
2023-05-10T01:11:13.061Z,0.00
2023-05-10T01:12:13.081Z,0.00
2023-05-10T01:13:13.117Z,0.00
2023-05-10T01:14:13.018Z,0.00
2023-05-10T01:15:13.004Z,0.00
2023-05-10T01:16:13.022Z,0.00
2023-05-10T01:17:13.080Z,0.00
2023-05-10T01:18:12.997Z,0.00
2023-05-10T01:19:12.968Z,0.00
2023-05-10T01:20:12.966Z,0.00
2023-05-10T01:21:12.965Z,0.00
2023-05-10T01:22:12.965Z,0.00
2023-05-10T01:23:12.946Z,0.00
2023-05-10T01:24:12.935Z,0.00
2023-05-10T01:25:12.912Z,0.00
2023-05-10T01:26:12.912Z,0.00
2023-05-10T01:27:12.903Z,0.00
2023-05-10T01:28:12.871Z,0.00
2023-05-10T01:29:12.871Z,0.00
2023-05-10T01:30:15.824Z,0.00
2023-05-10T01:31:12.928Z,0.00
2023-05-10T01:32:12.862Z,0.00
2023-05-10T01:33:12.831Z,0.00
2023-05-10T01:34:12.818Z,0.00
2023-05-10T01:35:12.801Z,0.00
2023-05-10T01:36:12.818Z,0.00
2023-05-10T01:37:12.794Z,0.00
2023-05-10T01:38:12.774Z,0.00
2023-05-10T01:39:12.763Z,0.00
2023-05-10T01:40:12.842Z,0.00
2023-05-10T01:41:12.748Z,0.00
2023-05-10T01:42:12.734Z,0.00
2023-05-10T01:43:12.717Z,0.00
2023-05-10T01:44:12.708Z,0.00
2023-05-10T01:45:12.698Z,0.00
2023-05-10T01:46:12.718Z,0.00
2023-05-10T01:47:12.679Z,0.00
2023-05-10T01:48:12.724Z,0.00
2023-05-10T01:49:12.692Z,0.00
2023-05-10T01:50:12.669Z,0.00
2023-05-10T01:51:12.645Z,0.00
2023-05-10T01:52:12.655Z,0.00
2023-05-10T01:53:12.612Z,0.00
2023-05-10T01:54:12.601Z,0.00
2023-05-10T01:55:12.608Z,0.00
2023-05-10T01:56:12.592Z,0.00
2023-05-10T01:57:12.578Z,0.00
2023-05-10T01:58:12.559Z,0.00
2023-05-10T01:59:12.546Z,0.00
2023-05-10T02:00:12.560Z,0.00
2023-05-10T02:01:12.544Z,0.00
2023-05-10T02:02:12.518Z,0.00
2023-05-10T02:03:12.742Z,0.00
2023-05-10T02:04:12.534Z,0.00
2023-05-10T02:05:12.497Z,0.00
2023-05-10T02:06:12.477Z,0.00
2023-05-10T02:07:12.459Z,0.00
2023-05-10T02:08:12.451Z,0.00
2023-05-10T02:09:12.463Z,0.00
2023-05-10T02:10:12.470Z,0.00
2023-05-10T02:11:12.430Z,0.00
2023-05-10T02:12:12.414Z,0.00
2023-05-10T02:13:12.443Z,0.00
2023-05-10T02:14:12.419Z,0.00
2023-05-10T02:15:12.381Z,0.00
2023-05-10T02:16:12.387Z,0.00
2023-05-10T02:17:12.356Z,0.00
2023-05-10T02:18:12.386Z,0.00
2023-05-10T02:19:12.354Z,0.00
2023-05-10T02:20:12.333Z,0.00
2023-05-10T02:21:12.341Z,0.00
2023-05-10T02:22:12.374Z,0.00
2023-05-10T02:23:12.318Z,0.00
2023-05-10T02:24:12.288Z,0.00
2023-05-10T02:25:12.270Z,0.00
2023-05-10T02:26:12.268Z,0.00
2023-05-10T02:27:12.249Z,0.00
2023-05-10T02:28:12.271Z,0.00
2023-05-10T02:29:12.227Z,0.00
2023-05-10T02:30:12.228Z,0.00
2023-05-10T02:31:12.227Z,0.00
2023-05-10T02:32:12.238Z,0.00
2023-05-10T02:33:12.229Z,0.00
2023-05-10T02:34:12.186Z,0.00
2023-05-10T02:35:12.166Z,0.00
2023-05-10T02:36:12.166Z,0.00
2023-05-10T02:37:12.163Z,0.00
2023-05-10T02:38:12.137Z,0.00
2023-05-10T02:39:12.125Z,0.00
2023-05-10T02:40:12.125Z,0.00
2023-05-10T02:41:12.108Z,0.00
2023-05-10T02:42:12.117Z,0.00
2023-05-10T02:43:12.087Z,0.00
2023-05-10T02:44:12.077Z,0.00
2023-05-10T02:45:12.077Z,0.00
2023-05-10T02:46:12.194Z,0.00
2023-05-10T02:47:12.068Z,0.00
2023-05-10T02:48:12.069Z,0.00
2023-05-10T02:49:12.037Z,0.00
2023-05-10T02:50:12.023Z,0.00
2023-05-10T02:51:12.030Z,0.00
2023-05-10T02:52:12.000Z,0.00
2023-05-10T02:53:11.987Z,0.00
2023-05-10T02:54:11.974Z,0.00
2023-05-10T02:55:11.977Z,0.00
2023-05-10T02:56:11.978Z,0.00
2023-05-10T02:57:11.943Z,0.00
2023-05-10T02:58:11.946Z,0.00
2023-05-10T02:59:11.921Z,0.00
2023-05-10T03:00:11.932Z,0.00
2023-05-10T03:01:11.914Z,0.00
2023-05-10T03:02:11.885Z,0.00
2023-05-10T03:03:11.907Z,0.00
2023-05-10T03:04:11.904Z,0.00
2023-05-10T03:05:11.950Z,0.00
2023-05-10T03:06:11.860Z,0.00
2023-05-10T03:07:11.848Z,0.00
2023-05-10T03:08:11.837Z,0.00
2023-05-10T03:09:11.836Z,0.00
2023-05-10T03:10:11.833Z,0.00
2023-05-10T03:11:11.808Z,0.00
2023-05-10T03:12:11.792Z,0.00
2023-05-10T03:13:11.832Z,0.00
2023-05-10T03:14:11.810Z,0.00
2023-05-10T03:15:11.762Z,0.00
2023-05-10T03:16:11.772Z,0.00
2023-05-10T03:17:11.739Z,0.00
2023-05-10T03:18:11.736Z,0.00
2023-05-10T03:19:11.739Z,0.00
2023-05-10T03:20:11.717Z,0.00
2023-05-10T03:21:11.692Z,0.00
2023-05-10T03:22:11.690Z,0.00
2023-05-10T03:23:11.705Z,0.00
2023-05-10T03:24:11.692Z,0.00
2023-05-10T03:25:11.673Z,0.00
2023-05-10T03:26:11.653Z,0.00
2023-05-10T03:27:11.669Z,0.00
2023-05-10T03:28:11.648Z,0.00
2023-05-10T03:29:11.620Z,0.00
2023-05-10T03:30:11.622Z,0.00
2023-05-10T03:31:11.657Z,0.00
2023-05-10T03:32:11.592Z,0.00
2023-05-10T03:33:11.594Z,0.00
2023-05-10T03:34:11.576Z,0.00
2023-05-10T03:35:11.562Z,0.00
2023-05-10T03:36:11.566Z,0.00
2023-05-10T03:37:11.556Z,0.00
2023-05-10T03:38:11.555Z,0.00
2023-05-10T03:39:11.526Z,0.00
2023-05-10T03:40:11.530Z,0.00
2023-05-10T03:41:11.504Z,0.00
2023-05-10T03:42:11.510Z,0.00
2023-05-10T03:43:11.476Z,0.00
2023-05-10T03:44:11.486Z,0.00
2023-05-10T03:45:11.472Z,0.00
2023-05-10T03:46:11.561Z,0.00
2023-05-10T03:47:11.461Z,0.00
2023-05-10T03:48:11.472Z,0.00
2023-05-10T03:49:11.417Z,0.00
2023-05-10T03:50:11.420Z,0.00
2023-05-10T03:51:11.442Z,0.00
2023-05-10T03:52:11.415Z,0.00
2023-05-10T03:53:11.381Z,0.00
2023-05-10T03:54:11.370Z,0.00
2023-05-10T03:55:11.363Z,0.00
2023-05-10T03:56:11.378Z,0.00
2023-05-10T03:57:11.340Z,0.00
2023-05-10T03:58:11.341Z,0.00
2023-05-10T03:59:11.330Z,0.00
2023-05-10T04:00:11.282Z,1.00
2023-05-10T04:01:11.258Z,1.00
2023-05-10T04:02:11.318Z,1.00
2023-05-10T04:03:11.375Z,0.00
2023-05-10T04:04:11.308Z,0.00
2023-05-10T04:05:11.291Z,0.00
2023-05-10T04:06:11.343Z,0.00
2023-05-10T04:07:11.241Z,0.00
2023-05-10T04:08:11.229Z,0.00
2023-05-10T04:09:11.222Z,0.00
2023-05-10T04:10:11.229Z,0.00
2023-05-10T04:11:11.198Z,0.00
2023-05-10T04:12:11.250Z,0.00
2023-05-10T04:13:11.202Z,0.00
2023-05-10T04:14:11.179Z,0.00
2023-05-10T04:15:11.174Z,0.00
2023-05-10T04:16:11.118Z,1.00
2023-05-10T04:17:11.244Z,0.00
2023-05-10T04:18:11.220Z,0.00
2023-05-10T04:19:11.137Z,0.00
2023-05-10T04:20:11.145Z,0.00
2023-05-10T04:21:11.105Z,0.00
2023-05-10T04:22:11.092Z,0.00
2023-05-10T04:23:11.084Z,0.00
2023-05-10T04:24:11.471Z,0.00
2023-05-10T04:25:11.035Z,2.00
2023-05-10T04:26:10.993Z,2.00
2023-05-10T04:27:10.984Z,3.00
2023-05-10T04:28:10.981Z,3.00
2023-05-10T04:29:10.992Z,2.00
2023-05-10T04:30:10.964Z,1.00
2023-05-10T04:31:11.017Z,1.00
2023-05-10T04:32:10.937Z,3.00
2023-05-10T04:33:10.944Z,3.00
2023-05-10T04:34:10.935Z,3.00
2023-05-10T04:35:10.904Z,3.00
2023-05-10T04:36:10.895Z,3.00
2023-05-10T04:37:10.889Z,3.00
2023-05-10T04:38:10.896Z,3.00
2023-05-10T04:39:10.871Z,2.00
2023-05-10T04:40:10.860Z,1.00
2023-05-10T04:41:10.841Z,1.00
2023-05-10T04:42:10.837Z,2.00
2023-05-10T04:43:10.836Z,1.00
2023-05-10T04:44:10.816Z,2.00
2023-05-10T04:45:10.798Z,2.00
2023-05-10T04:46:10.847Z,2.00
2023-05-10T04:47:12.708Z,1.00
2023-05-10T04:48:10.794Z,1.00
2023-05-10T04:49:10.765Z,1.00
2023-05-10T04:50:10.766Z,1.00
2023-05-10T04:51:10.744Z,1.00
2023-05-10T04:52:10.767Z,1.00
2023-05-10T04:53:10.726Z,1.00
2023-05-10T04:54:10.717Z,1.00
2023-05-10T04:55:10.703Z,2.00
2023-05-10T04:56:10.691Z,5.00
2023-05-10T04:57:10.697Z,5.00
2023-05-10T04:58:10.683Z,4.00
2023-05-10T04:59:10.659Z,2.00
2023-05-10T05:00:10.655Z,3.00
2023-05-10T05:01:10.726Z,5.00
2023-05-10T05:02:10.838Z,4.00
2023-05-10T05:03:10.762Z,4.00
2023-05-10T05:04:10.616Z,2.00
2023-05-10T05:05:10.608Z,1.00
2023-05-10T05:06:10.612Z,2.00
2023-05-10T05:07:10.584Z,2.00
2023-05-10T05:08:10.584Z,1.00
2023-05-10T05:09:10.573Z,2.00
2023-05-10T05:10:10.562Z,1.00
2023-05-10T05:11:10.568Z,3.00
2023-05-10T05:12:10.541Z,6.00
2023-05-10T05:13:10.548Z,2.00
2023-05-10T05:14:10.511Z,3.00
2023-05-10T05:15:10.511Z,3.00
2023-05-10T05:16:10.519Z,1.00
2023-05-10T05:17:10.481Z,2.00
2023-05-10T05:18:10.502Z,1.00
2023-05-10T05:19:10.460Z,1.00
2023-05-10T05:20:10.475Z,2.00
2023-05-10T05:21:10.440Z,1.00
2023-05-10T05:22:10.440Z,2.00
2023-05-10T05:23:10.430Z,2.00
2023-05-10T05:24:10.413Z,4.00
2023-05-10T05:25:10.419Z,4.00
2023-05-10T05:26:10.411Z,6.00
2023-05-10T05:27:10.385Z,5.00
2023-05-10T05:28:10.408Z,3.00
2023-05-10T05:29:10.379Z,5.00
2023-05-10T05:30:10.388Z,6.00
2023-05-10T05:31:10.438Z,6.00
2023-05-10T05:32:10.376Z,2.00
2023-05-10T05:33:10.388Z,2.00
2023-05-10T05:34:10.337Z,2.00
2023-05-10T05:35:10.305Z,2.00
2023-05-10T05:36:10.300Z,2.00
2023-05-10T05:37:10.279Z,2.00
2023-05-10T05:38:10.269Z,2.00
2023-05-10T05:39:10.280Z,2.00
2023-05-10T05:40:10.258Z,2.00
2023-05-10T05:41:10.240Z,2.00
2023-05-10T05:42:10.222Z,3.00
2023-05-10T05:43:10.236Z,3.00
2023-05-10T05:44:10.224Z,4.00
2023-05-10T05:45:10.202Z,4.00
2023-05-10T05:46:10.189Z,2.00
2023-05-10T05:47:10.182Z,2.00
2023-05-10T05:48:10.215Z,4.00
2023-05-10T05:49:10.164Z,6.00
2023-05-10T05:50:10.146Z,6.00
2023-05-10T05:51:10.148Z,5.00
2023-05-10T05:52:10.126Z,5.00
2023-05-10T05:53:10.269Z,5.00
2023-05-10T05:54:10.110Z,5.00
2023-05-10T05:55:10.096Z,4.00
2023-05-10T05:56:10.105Z,4.00
2023-05-10T05:57:10.092Z,5.00
2023-05-10T05:58:10.116Z,8.00
2023-05-10T05:59:10.175Z,6.00
2023-05-10T06:00:10.065Z,6.00
2023-05-10T06:01:10.073Z,6.00
2023-05-10T06:02:10.100Z,6.00
2023-05-10T06:03:10.062Z,5.00
2023-05-10T06:04:10.012Z,4.00
2023-05-10T06:05:10.011Z,8.00
2023-05-10T06:06:09.995Z,6.00
2023-05-10T06:07:09.994Z,4.00
2023-05-10T06:08:09.963Z,7.00
2023-05-10T06:09:09.965Z,8.00
2023-05-10T06:10:09.961Z,10.00
2023-05-10T06:11:09.967Z,9.00
2023-05-10T06:12:09.954Z,7.00
2023-05-10T06:13:09.996Z,7.00
2023-05-10T06:14:09.902Z,6.00
2023-05-10T06:15:09.907Z,6.00
2023-05-10T06:16:09.973Z,6.00
2023-05-10T06:17:09.874Z,6.00
2023-05-10T06:18:09.978Z,7.00
2023-05-10T06:19:09.865Z,8.00
2023-05-10T06:20:09.857Z,7.00
2023-05-10T06:21:09.853Z,9.00
2023-05-10T06:22:09.833Z,8.00
2023-05-10T06:23:09.819Z,5.00
2023-05-10T06:24:09.807Z,5.00
2023-05-10T06:25:09.821Z,7.00
2023-05-10T06:26:09.816Z,7.00
2023-05-10T06:27:09.780Z,5.00
2023-05-10T06:28:09.773Z,6.00
2023-05-10T06:29:09.769Z,6.00
2023-05-10T06:30:13.286Z,7.00
2023-05-10T06:31:09.785Z,10.00
2023-05-10T06:32:09.720Z,7.00
2023-05-10T06:33:09.777Z,7.00
2023-05-10T06:34:09.699Z,6.00
2023-05-10T06:35:09.723Z,6.00
2023-05-10T06:36:09.687Z,4.00
2023-05-10T06:37:09.683Z,4.00
2023-05-10T06:38:09.662Z,3.00
2023-05-10T06:39:09.687Z,5.00
2023-05-10T06:40:09.657Z,9.00
2023-05-10T06:41:09.649Z,8.00
2023-05-10T06:42:09.630Z,6.00
2023-05-10T06:43:09.611Z,6.00
2023-05-10T06:44:09.622Z,5.00
2023-05-10T06:45:09.609Z,3.00
2023-05-10T06:46:09.612Z,4.00
2023-05-10T06:47:09.568Z,4.00
2023-05-10T06:48:09.605Z,10.00
2023-05-10T06:49:09.569Z,10.00
2023-05-10T06:50:09.590Z,10.00
2023-05-10T06:51:09.535Z,9.00
2023-05-10T06:52:09.550Z,10.00
2023-05-10T06:53:09.531Z,10.00
2023-05-10T06:54:09.568Z,9.00
2023-05-10T06:55:09.498Z,12.00
2023-05-10T06:56:09.472Z,11.00
2023-05-10T06:57:23.423Z,12.00
2023-05-10T06:58:10.488Z,11.00
2023-05-10T06:59:09.499Z,7.00
2023-05-10T07:00:09.473Z,4.00
2023-05-10T07:01:09.672Z,5.00
2023-05-10T07:02:09.439Z,8.00
2023-05-10T07:03:09.494Z,7.00
2023-05-10T07:04:09.396Z,11.00
2023-05-10T07:05:09.386Z,5.00
2023-05-10T07:06:15.652Z,2.00
2023-05-10T07:07:10.361Z,2.00
2023-05-10T07:08:09.368Z,8.00
2023-05-10T07:09:09.345Z,7.00
2023-05-10T07:10:09.331Z,10.00
2023-05-10T07:11:09.325Z,4.00
2023-05-10T07:12:11.101Z,4.00
2023-05-10T07:13:09.494Z,2.00
2023-05-10T07:14:09.289Z,3.00
2023-05-10T07:15:09.278Z,7.00
2023-05-10T07:16:09.320Z,3.00
2023-05-10T07:17:09.346Z,4.00
2023-05-10T07:18:09.306Z,4.00
2023-05-10T07:19:09.245Z,6.00
2023-05-10T07:20:09.230Z,5.00
2023-05-10T07:21:09.261Z,7.00
2023-05-10T07:22:09.222Z,6.00
2023-05-10T07:23:09.221Z,7.00
2023-05-10T07:24:09.198Z,8.00
2023-05-10T07:25:09.183Z,14.00
2023-05-10T07:26:09.185Z,14.00
2023-05-10T07:27:09.175Z,11.00
2023-05-10T07:28:09.147Z,17.00
2023-05-10T07:29:09.147Z,14.00
2023-05-10T07:30:09.134Z,14.00
2023-05-10T07:31:09.168Z,11.00
2023-05-10T07:32:09.211Z,15.00
2023-05-10T07:33:09.150Z,18.00
2023-05-10T07:34:09.094Z,16.00
2023-05-10T07:35:09.079Z,16.00
2023-05-10T07:36:09.077Z,18.00
2023-05-10T07:37:09.083Z,18.00
2023-05-10T07:38:09.039Z,13.00
2023-05-10T07:39:09.055Z,24.00
2023-05-10T07:40:09.045Z,21.00
2023-05-10T07:41:09.032Z,24.00
2023-05-10T07:42:09.002Z,17.00
2023-05-10T07:43:09.014Z,23.00
2023-05-10T07:44:08.976Z,26.00
2023-05-10T07:45:08.992Z,22.00
2023-05-10T07:46:09.034Z,22.00
2023-05-10T07:47:08.948Z,25.00
2023-05-10T07:48:08.975Z,27.00
2023-05-10T07:49:08.932Z,28.00
2023-05-10T07:50:08.944Z,28.00
2023-05-10T07:51:08.908Z,28.00
2023-05-10T07:52:08.929Z,29.00
2023-05-10T07:53:08.906Z,31.00
2023-05-10T07:54:08.912Z,27.00
2023-05-10T07:55:08.887Z,33.00
2023-05-10T07:56:08.864Z,30.00
2023-05-10T07:57:08.843Z,43.00
2023-05-10T07:58:08.860Z,48.00
2023-05-10T07:59:10.667Z,31.00
2023-05-10T08:00:08.830Z,28.00
2023-05-10T08:01:08.807Z,45.00
2023-05-10T08:02:08.877Z,52.00
2023-05-10T08:03:08.860Z,39.00
2023-05-10T08:04:08.918Z,27.00
2023-05-10T08:05:08.766Z,38.00
2023-05-10T08:06:08.776Z,49.00
2023-05-10T08:07:08.768Z,39.00
2023-05-10T08:08:08.757Z,40.00
2023-05-10T08:09:08.748Z,35.00
2023-05-10T08:10:08.724Z,38.00
2023-05-10T08:11:08.715Z,34.00
2023-05-10T08:12:08.716Z,30.00
2023-05-10T08:13:08.702Z,39.00
2023-05-10T08:14:08.682Z,32.00
2023-05-10T08:15:08.676Z,19.00
2023-05-10T08:16:08.736Z,24.00
2023-05-10T08:17:08.649Z,33.00
2023-05-10T08:18:08.711Z,91.00
2023-05-10T08:19:08.714Z,37.00
2023-05-10T08:20:08.632Z,44.00
2023-05-10T08:21:08.600Z,26.00
2023-05-10T08:22:08.634Z,22.00
2023-05-10T08:23:08.608Z,30.00
2023-05-10T08:24:08.588Z,22.00
2023-05-10T08:25:08.567Z,52.00
2023-05-10T08:26:08.558Z,35.00
2023-05-10T08:27:08.565Z,55.00
2023-05-10T08:28:09.991Z,49.00
2023-05-10T08:29:08.518Z,36.00
2023-05-10T08:30:08.518Z,33.00
2023-05-10T08:31:08.565Z,20.00
2023-05-10T08:32:08.532Z,22.00
2023-05-10T08:33:08.569Z,110.00
2023-05-10T08:34:08.494Z,48.00
2023-05-10T08:35:08.462Z,38.00
2023-05-10T08:36:08.478Z,38.00
2023-05-10T08:37:08.472Z,35.00
2023-05-10T08:38:08.440Z,26.00
2023-05-10T08:39:16.245Z,28.00
2023-05-10T08:40:09.421Z,73.00
2023-05-10T08:41:08.424Z,79.00
2023-05-10T08:42:08.405Z,46.00
2023-05-10T08:43:08.384Z,50.00
2023-05-10T08:44:08.378Z,38.00
2023-05-10T08:45:08.359Z,28.00
2023-05-10T08:46:08.461Z,24.00
2023-05-10T08:47:08.399Z,38.00
2023-05-10T08:48:08.405Z,103.00
2023-05-10T08:49:08.325Z,61.00
2023-05-10T08:50:08.339Z,215.00
2023-05-10T08:51:08.325Z,195.00
2023-05-10T08:52:08.354Z,54.00
2023-05-10T08:53:08.282Z,25.00
2023-05-10T08:54:08.269Z,13.00
2023-05-10T08:55:08.283Z,15.00
2023-05-10T08:56:08.250Z,23.00
2023-05-10T08:57:08.238Z,23.00
2023-05-10T08:58:08.240Z,202.00
2023-05-10T08:59:08.228Z,158.00
2023-05-10T09:00:08.241Z,363.00
2023-05-10T09:01:08.228Z,107.00
2023-05-10T09:02:08.194Z,393.00
2023-05-10T09:03:08.238Z,56.00
2023-05-10T09:04:08.267Z,369.00
2023-05-10T09:05:08.250Z,83.00
2023-05-10T09:06:08.182Z,279.00
2023-05-10T09:07:08.125Z,281.00
2023-05-10T09:08:08.123Z,105.00
2023-05-10T09:09:08.133Z,54.00
2023-05-10T09:10:08.123Z,47.00
2023-05-10T09:11:08.093Z,221.00
2023-05-10T09:12:08.102Z,149.00
2023-05-10T09:13:08.076Z,30.00
2023-05-10T09:14:08.252Z,37.00
2023-05-10T09:15:08.048Z,126.00
2023-05-10T09:16:20.542Z,51.00
2023-05-10T09:17:09.060Z,54.00
2023-05-10T09:18:08.088Z,89.00
2023-05-10T09:19:08.258Z,81.00
2023-05-10T09:20:07.997Z,46.00
2023-05-10T09:21:07.991Z,45.00
2023-05-10T09:22:08.006Z,29.00
2023-05-10T09:23:07.980Z,54.00
2023-05-10T09:24:07.987Z,236.00
2023-05-10T09:25:07.942Z,133.00
2023-05-10T09:26:07.947Z,501.00
2023-05-10T09:27:07.943Z,483.00
2023-05-10T09:28:07.947Z,482.00
2023-05-10T09:29:07.908Z,184.00
2023-05-10T09:30:07.906Z,50.00
2023-05-10T09:31:07.944Z,162.00
2023-05-10T09:32:07.885Z,55.00
2023-05-10T09:33:07.946Z,213.00
2023-05-10T09:34:07.860Z,132.00
2023-05-10T09:35:07.850Z,68.00
2023-05-10T09:36:07.846Z,64.00
2023-05-10T09:37:07.835Z,34.00
2023-05-10T09:38:07.822Z,164.00
2023-05-10T09:39:07.809Z,32.00
2023-05-10T09:40:07.798Z,47.00
2023-05-10T09:41:07.885Z,84.00
2023-05-10T09:42:07.808Z,150.00
2023-05-10T09:43:07.780Z,448.00
2023-05-10T09:44:07.750Z,210.00
2023-05-10T09:45:07.766Z,87.00
2023-05-10T09:46:07.784Z,44.00
2023-05-10T09:47:07.741Z,23.00
2023-05-10T09:48:07.939Z,32.00
2023-05-10T09:49:07.703Z,53.00
2023-05-10T09:50:07.744Z,37.00
2023-05-10T09:51:07.719Z,191.00
2023-05-10T09:52:07.680Z,306.00
2023-05-10T09:53:07.677Z,42.00
2023-05-10T09:54:07.645Z,30.00
2023-05-10T09:55:07.650Z,32.00
2023-05-10T09:56:07.646Z,25.00
2023-05-10T09:57:07.632Z,27.00
2023-05-10T09:58:07.612Z,52.00
2023-05-10T09:59:07.595Z,40.00
2023-05-10T10:00:07.604Z,55.00
2023-05-10T10:01:07.618Z,46.00
2023-05-10T10:02:07.701Z,34.00
2023-05-10T10:03:07.624Z,39.00
2023-05-10T10:04:07.563Z,27.00
2023-05-10T10:05:07.739Z,21.00
2023-05-10T10:06:15.864Z,14.00
2023-05-10T10:07:08.523Z,11.00
2023-05-10T10:08:07.515Z,11.00
2023-05-10T10:09:07.533Z,14.00
2023-05-10T10:10:07.503Z,20.00
2023-05-10T10:11:07.485Z,262.00
2023-05-10T10:12:07.462Z,413.00
2023-05-10T10:13:07.457Z,385.00
2023-05-10T10:14:07.463Z,70.00
2023-05-10T10:15:07.464Z,128.00
2023-05-10T10:16:07.475Z,299.00
2023-05-10T10:17:08.904Z,346.00
2023-05-10T10:18:07.452Z,338.00
2023-05-10T10:19:07.446Z,243.00
2023-05-10T10:20:08.729Z,88.00
2023-05-10T10:21:07.378Z,154.00
2023-05-10T10:22:07.414Z,340.00
2023-05-10T10:23:07.358Z,212.00
2023-05-10T10:24:07.359Z,254.00
2023-05-10T10:25:07.369Z,246.00
2023-05-10T10:26:07.333Z,113.00
2023-05-10T10:27:07.312Z,371.00
2023-05-10T10:28:07.318Z,116.00
2023-05-10T10:29:07.314Z,432.00
2023-05-10T10:30:07.290Z,162.00
2023-05-10T10:31:07.326Z,633.00
2023-05-10T10:32:07.265Z,434.00
2023-05-10T10:33:16.529Z,177.00
2023-05-10T10:34:08.275Z,177.00
2023-05-10T10:35:07.234Z,462.00
2023-05-10T10:36:07.221Z,302.00
2023-05-10T10:37:07.243Z,273.00
2023-05-10T10:38:07.226Z,96.00
2023-05-10T10:39:07.200Z,34.00
2023-05-10T10:40:07.176Z,49.00
2023-05-10T10:41:07.191Z,206.00
2023-05-10T10:42:07.186Z,444.00
2023-05-10T10:43:07.202Z,786.00
2023-05-10T10:44:07.147Z,396.00
2023-05-10T10:45:07.130Z,176.00
2023-05-10T10:46:07.110Z,435.00
2023-05-10T10:47:07.208Z,731.00
2023-05-10T10:48:07.167Z,201.00
2023-05-10T10:49:07.079Z,51.00
2023-05-10T10:50:07.088Z,30.00
2023-05-10T10:51:07.091Z,54.00
2023-05-10T10:52:07.071Z,158.00
2023-05-10T10:53:07.109Z,41.00
2023-05-10T10:54:07.034Z,213.00
2023-05-10T10:55:07.029Z,68.00
2023-05-10T10:56:07.027Z,46.00
2023-05-10T10:57:07.022Z,47.00
2023-05-10T10:58:06.996Z,35.00
2023-05-10T10:59:07.001Z,27.00
2023-05-10T11:00:06.966Z,22.00
2023-05-10T11:01:07.019Z,33.00
2023-05-10T11:02:06.956Z,36.00
2023-05-10T11:03:06.983Z,85.00
2023-05-10T11:04:06.989Z,172.00
2023-05-10T11:05:06.939Z,56.00
2023-05-10T11:06:06.929Z,93.00
2023-05-10T11:07:06.898Z,389.00
2023-05-10T11:08:06.890Z,119.00
2023-05-10T11:09:06.877Z,89.00
2023-05-10T11:10:06.885Z,57.00
2023-05-10T11:11:06.865Z,34.00
2023-05-10T11:12:06.858Z,207.00
2023-05-10T11:13:06.838Z,377.00
2023-05-10T11:14:06.826Z,221.00
2023-05-10T11:15:06.835Z,35.00
2023-05-10T11:16:06.806Z,33.00
2023-05-10T11:17:06.948Z,27.00
2023-05-10T11:18:06.821Z,30.00
2023-05-10T11:19:06.952Z,24.00
2023-05-10T11:20:06.776Z,25.00
2023-05-10T11:21:06.758Z,22.00
2023-05-10T11:22:06.780Z,19.00
2023-05-10T11:23:06.754Z,11.00
2023-05-10T11:24:07.124Z,13.00
2023-05-10T11:25:06.732Z,10.00
2023-05-10T11:26:06.711Z,15.00
2023-05-10T11:27:06.711Z,17.00
2023-05-10T11:28:06.692Z,11.00
2023-05-10T11:29:06.711Z,14.00
2023-05-10T11:30:06.764Z,15.00
2023-05-10T11:31:06.689Z,14.00
2023-05-10T11:32:06.649Z,14.00
2023-05-10T11:33:06.752Z,15.00
2023-05-10T11:34:06.646Z,13.00
2023-05-10T11:35:06.627Z,16.00
2023-05-10T11:36:06.608Z,13.00
2023-05-10T11:37:06.615Z,13.00
2023-05-10T11:38:06.613Z,27.00
2023-05-10T11:39:06.587Z,19.00
2023-05-10T11:40:06.587Z,18.00
2023-05-10T11:41:06.558Z,17.00
2023-05-10T11:42:06.551Z,13.00
2023-05-10T11:43:06.560Z,14.00
2023-05-10T11:44:06.524Z,16.00
2023-05-10T11:45:06.521Z,12.00
2023-05-10T11:46:06.551Z,14.00
2023-05-10T11:47:06.521Z,12.00
2023-05-10T11:48:06.531Z,9.00
2023-05-10T11:49:06.477Z,10.00
2023-05-10T11:50:06.462Z,15.00
2023-05-10T11:51:06.451Z,16.00
2023-05-10T11:52:06.539Z,17.00
2023-05-10T11:53:06.457Z,16.00
2023-05-10T11:54:06.426Z,17.00
2023-05-10T11:55:06.417Z,22.00
2023-05-10T11:56:06.416Z,22.00
2023-05-10T11:57:06.437Z,30.00
2023-05-10T11:58:06.379Z,33.00
2023-05-10T11:59:06.363Z,22.00
2023-05-10T12:00:06.362Z,20.00
2023-05-10T12:01:06.395Z,30.00
2023-05-10T12:02:06.354Z,60.00
2023-05-10T12:03:06.406Z,62.00
2023-05-10T12:04:06.511Z,54.00
2023-05-10T12:05:06.431Z,40.00
2023-05-10T12:06:06.318Z,33.00
2023-05-10T12:07:06.289Z,28.00
2023-05-10T12:08:06.276Z,30.00
2023-05-10T12:09:06.281Z,19.00
2023-05-10T12:10:06.269Z,21.00
2023-05-10T12:11:06.271Z,18.00
2023-05-10T12:12:06.227Z,15.00
2023-05-10T12:13:06.245Z,17.00
2023-05-10T12:14:06.218Z,16.00
2023-05-10T12:15:06.232Z,20.00
2023-05-10T12:16:06.243Z,19.00
2023-05-10T12:17:06.198Z,21.00
2023-05-10T12:18:06.193Z,27.00
2023-05-10T12:19:06.467Z,28.00
2023-05-10T12:20:06.169Z,27.00
2023-05-10T12:21:06.150Z,25.00
2023-05-10T12:22:06.138Z,27.00
2023-05-10T12:23:06.133Z,23.00
2023-05-10T12:24:06.113Z,18.00
2023-05-10T12:25:06.124Z,15.00
2023-05-10T12:26:06.093Z,11.00
2023-05-10T12:27:06.107Z,6.00
2023-05-10T12:28:06.077Z,6.00
2023-05-10T12:29:06.083Z,8.00
2023-05-10T12:30:06.089Z,2.00
2023-05-10T12:31:06.050Z,2.00
2023-05-10T12:32:06.118Z,3.00
2023-05-10T12:33:06.110Z,3.00
2023-05-10T12:34:06.025Z,5.00
2023-05-10T12:35:06.010Z,3.00
2023-05-10T12:36:05.998Z,4.00
2023-05-10T12:37:05.997Z,4.00
2023-05-10T12:38:05.965Z,4.00
2023-05-10T12:39:05.987Z,4.00
2023-05-10T12:40:05.948Z,6.00
2023-05-10T12:41:05.978Z,6.00
2023-05-10T12:42:05.953Z,7.00
2023-05-10T12:43:05.957Z,6.00
2023-05-10T12:44:05.923Z,7.00
2023-05-10T12:45:05.904Z,7.00
2023-05-10T12:46:05.936Z,8.00
2023-05-10T12:47:05.886Z,12.00
2023-05-10T12:48:05.959Z,10.00
2023-05-10T12:49:09.615Z,10.00
2023-05-10T12:50:05.851Z,12.00
2023-05-10T12:51:05.846Z,10.00
2023-05-10T12:52:05.828Z,12.00
2023-05-10T12:53:05.841Z,17.00
2023-05-10T12:54:05.816Z,17.00
2023-05-10T12:55:05.801Z,20.00
2023-05-10T12:56:05.797Z,21.00
2023-05-10T12:57:05.803Z,23.00
2023-05-10T12:58:05.781Z,29.00
2023-05-10T12:59:05.762Z,31.00
2023-05-10T13:00:05.756Z,26.00
2023-05-10T13:01:05.879Z,25.00
2023-05-10T13:02:05.742Z,27.00
2023-05-10T13:03:05.751Z,32.00
2023-05-10T13:04:05.855Z,28.00